createdAt,value
2017-10-23T00:01:46.203Z,99185.97
2017-10-23T00:04:13.609Z,99182.17
2017-10-23T00:06:41.058Z,99169.09
2017-10-23T00:09:08.457Z,99180.00
2017-10-23T00:11:35.891Z,99178.70
2017-10-23T00:14:03.571Z,99170.42
2017-10-23T00:16:30.963Z,99180.20
2017-10-23T00:18:58.405Z,99181.93
2017-10-23T00:21:25.827Z,99178.63
2017-10-23T00:23:53.617Z,99183.11
2017-10-23T00:26:21.028Z,99189.40
2017-10-23T00:28:48.433Z,99187.59
2017-10-23T00:31:15.874Z,99188.32
2017-10-23T00:33:43.277Z,99190.82
2017-10-23T00:36:10.704Z,99191.83
2017-10-23T00:38:38.120Z,99182.42
2017-10-23T00:41:06.507Z,99193.31
2017-10-23T00:43:33.951Z,99198.75
2017-10-23T00:46:01.377Z,99203.71
2017-10-23T00:48:28.819Z,99206.45
2017-10-23T00:50:56.250Z,99212.17
2017-10-23T00:53:23.706Z,99217.09
2017-10-23T00:55:51.106Z,99217.76
2017-10-23T00:58:18.539Z,99212.19
2017-10-23T01:00:45.956Z,99213.54
2017-10-23T01:03:13.412Z,99210.84
2017-10-23T01:05:40.819Z,99205.85
2017-10-23T01:08:08.297Z,99204.63
2017-10-23T01:10:35.708Z,99209.03
2017-10-23T01:13:03.171Z,99206.70
2017-10-23T01:15:30.602Z,99212.53
2017-10-23T01:17:58.041Z,99210.95
2017-10-23T01:20:25.513Z,99207.20
2017-10-23T01:22:52.931Z,99207.06
2017-10-23T01:25:20.348Z,99204.32
2017-10-23T01:27:47.786Z,99214.01
2017-10-23T01:30:15.232Z,99210.73
2017-10-23T01:32:42.633Z,99204.05
2017-10-23T01:35:10.075Z,99202.53
2017-10-23T01:37:37.467Z,99204.96
2017-10-23T01:40:04.896Z,99211.67
2017-10-23T01:42:32.334Z,99212.86
2017-10-23T01:44:59.728Z,99213.20
2017-10-23T01:47:27.156Z,99210.20
2017-10-23T01:49:54.549Z,99198.73
2017-10-23T01:52:21.982Z,99202.34
2017-10-23T01:54:49.398Z,99204.72
2017-10-23T01:57:16.863Z,99209.58
2017-10-23T01:59:44.272Z,99214.67
2017-10-23T02:02:11.678Z,99205.55
2017-10-23T02:04:39.125Z,99202.32
2017-10-23T02:07:06.548Z,99200.41
2017-10-23T02:09:33.977Z,99201.70
2017-10-23T02:12:01.396Z,99201.99
2017-10-23T02:14:28.840Z,99211.66
2017-10-23T02:16:56.264Z,99210.69
2017-10-23T02:19:23.699Z,99209.34
2017-10-23T02:21:51.122Z,99209.63
2017-10-23T02:24:19.531Z,99204.87
2017-10-23T02:26:46.947Z,99210.03
2017-10-23T02:29:15.081Z,99211.32
2017-10-23T02:31:42.513Z,99202.13
2017-10-23T02:34:09.968Z,99208.70
2017-10-23T02:36:37.414Z,99212.89
2017-10-23T02:39:04.829Z,99210.66
2017-10-23T02:41:32.260Z,99217.48
2017-10-23T02:43:59.697Z,99211.69
2017-10-23T02:46:27.124Z,99205.44
2017-10-23T02:48:54.529Z,99211.25
2017-10-23T02:51:21.986Z,99203.23
2017-10-23T02:53:49.385Z,99222.42
2017-10-23T02:56:16.795Z,99216.60
2017-10-23T02:58:44.207Z,99221.22
2017-10-23T03:01:11.646Z,99223.37
2017-10-23T03:03:39.087Z,99226.92
2017-10-23T03:06:06.473Z,99228.22
2017-10-23T03:08:33.958Z,99233.01
2017-10-23T03:11:01.408Z,99235.01
2017-10-23T03:13:28.800Z,99232.00
2017-10-23T03:15:56.244Z,99238.08
2017-10-23T03:18:23.674Z,99243.81
2017-10-23T03:20:51.083Z,99238.81
2017-10-23T03:23:18.516Z,99242.53
2017-10-23T03:25:45.964Z,99250.44
2017-10-23T03:28:13.364Z,99252.19
2017-10-23T03:30:40.856Z,99249.30
2017-10-23T03:33:08.244Z,99248.27
2017-10-23T03:35:35.675Z,99242.80
2017-10-23T03:38:03.095Z,99249.56
2017-10-23T03:40:30.511Z,99245.86
2017-10-23T03:42:57.914Z,99252.37
2017-10-23T03:45:25.458Z,99251.56
2017-10-23T03:47:52.860Z,99252.87
2017-10-23T03:50:20.291Z,99252.53
2017-10-23T03:52:47.718Z,99257.91
2017-10-23T03:55:15.099Z,99263.31
2017-10-23T03:57:42.519Z,99260.17
2017-10-23T04:00:09.922Z,99260.41
2017-10-23T04:02:37.352Z,99261.96
2017-10-23T04:05:04.743Z,99263.84
2017-10-23T04:07:32.205Z,99270.34
2017-10-23T04:09:59.627Z,99267.95
2017-10-23T04:12:27.067Z,99273.23
2017-10-23T04:14:54.473Z,99279.13
2017-10-23T04:17:21.892Z,99285.59
2017-10-23T04:19:49.304Z,99290.19
2017-10-23T04:22:16.924Z,99283.64
2017-10-23T04:24:44.317Z,99285.25
2017-10-23T04:27:11.749Z,99289.89
2017-10-23T04:29:39.162Z,99282.41
2017-10-23T04:32:07.505Z,99289.38
2017-10-23T04:34:34.958Z,99294.92
2017-10-23T04:37:02.401Z,99294.52
2017-10-23T04:39:29.937Z,99292.77
2017-10-23T04:41:57.376Z,99288.66
2017-10-23T04:44:24.827Z,99292.14
2017-10-23T04:46:52.236Z,99291.53
2017-10-23T04:49:19.652Z,99291.99
2017-10-23T04:51:47.108Z,99292.67
2017-10-23T04:54:14.532Z,99294.17
2017-10-23T05:02:34.319Z,99291.17
2017-10-23T05:05:01.739Z,99292.50
2017-10-23T05:07:29.176Z,99291.86
2017-10-23T05:09:56.564Z,99295.28
2017-10-23T05:12:24.016Z,99296.27
2017-10-23T05:14:51.451Z,99299.45
2017-10-23T05:17:18.853Z,99291.02
2017-10-23T05:19:46.274Z,99293.11
2017-10-23T05:22:13.675Z,99288.09
2017-10-23T05:24:41.098Z,99291.86
2017-10-23T05:27:08.487Z,99292.47
2017-10-23T05:29:35.967Z,99297.50
2017-10-23T05:32:03.360Z,99302.47
2017-10-23T05:34:30.838Z,99308.66
2017-10-23T05:36:58.248Z,99298.39
2017-10-23T05:39:25.627Z,99313.17
2017-10-23T05:41:53.077Z,99310.55
2017-10-23T05:44:20.479Z,99311.36
2017-10-23T05:46:48.117Z,99314.26
2017-10-23T05:49:15.496Z,99308.63
2017-10-23T05:51:42.909Z,99311.79
2017-10-23T05:54:10.304Z,99306.20
2017-10-23T05:56:37.794Z,99312.25
2017-10-23T05:59:05.176Z,99307.86
2017-10-23T06:01:32.626Z,99309.98
2017-10-23T06:04:00.080Z,99316.81
2017-10-23T06:06:27.496Z,99314.83
2017-10-23T06:08:54.918Z,99321.17
2017-10-23T06:11:22.333Z,99322.67
2017-10-23T06:13:49.760Z,99323.39
2017-10-23T06:16:17.151Z,99315.03
2017-10-23T06:18:44.580Z,99324.05
2017-10-23T06:21:11.971Z,99325.69
2017-10-23T06:23:39.438Z,99331.51
2017-10-23T06:26:06.858Z,99336.36
2017-10-23T06:28:34.300Z,99335.33
2017-10-23T06:31:02.023Z,99333.55
2017-10-23T06:33:29.492Z,99333.80
2017-10-23T06:35:56.912Z,99331.70
2017-10-23T06:38:24.335Z,99335.67
2017-10-23T06:40:51.764Z,99341.27
2017-10-23T06:43:19.189Z,99346.45
2017-10-23T06:45:46.676Z,99347.75
2017-10-23T06:48:14.059Z,99352.20
2017-10-23T06:50:41.526Z,99358.66
2017-10-23T06:53:08.915Z,99354.55
2017-10-23T06:55:36.395Z,99355.50
2017-10-23T06:58:04.789Z,99361.76
2017-10-23T07:00:32.198Z,99360.09
2017-10-23T07:02:59.655Z,99361.47
2017-10-23T07:05:27.113Z,99374.07
2017-10-23T07:07:54.568Z,99376.20
2017-10-23T07:10:21.992Z,99377.89
2017-10-23T07:12:49.421Z,99370.66
2017-10-23T07:15:16.836Z,99389.20
2017-10-23T07:17:44.267Z,99388.59
2017-10-23T07:20:11.661Z,99378.48
2017-10-23T07:22:39.072Z,99390.80
2017-10-23T07:25:06.472Z,99399.55
2017-10-23T07:27:33.884Z,99397.16
2017-10-23T07:30:01.292Z,99381.31
2017-10-23T07:32:28.765Z,99394.59
2017-10-23T07:34:56.173Z,99389.72
2017-10-23T07:37:23.616Z,99397.47
2017-10-23T07:39:51.068Z,99377.06
2017-10-23T07:42:18.484Z,99398.77
2017-10-23T07:44:45.913Z,99390.03
2017-10-23T07:47:13.364Z,99390.06
2017-10-23T07:49:40.797Z,99384.55
2017-10-23T07:52:08.659Z,99371.41
2017-10-23T07:54:36.120Z,99390.86
2017-10-23T07:57:03.586Z,99394.48
2017-10-23T07:59:31.389Z,99395.00
2017-10-23T08:01:58.823Z,99399.94
2017-10-23T08:04:26.303Z,99401.41
2017-10-23T08:06:53.696Z,99400.92
2017-10-23T08:09:21.143Z,99397.64
2017-10-23T08:11:48.559Z,99388.91
2017-10-23T08:14:15.969Z,99392.63
2017-10-23T08:16:43.984Z,99392.52
2017-10-23T08:19:11.397Z,99396.04
2017-10-23T08:21:38.818Z,99394.91
2017-10-23T08:24:06.204Z,99385.84
2017-10-23T08:26:33.712Z,99407.25
2017-10-23T08:29:01.120Z,99407.73
2017-10-23T08:31:28.574Z,99408.50
2017-10-23T08:33:55.972Z,99406.43
2017-10-23T08:36:23.443Z,99398.58
2017-10-23T08:38:50.884Z,99384.09
2017-10-23T08:41:18.348Z,99381.73
2017-10-23T08:43:45.785Z,99399.13
2017-10-23T08:46:13.194Z,99412.06
2017-10-23T08:48:41.517Z,99397.41
2017-10-23T08:51:08.953Z,99413.50
2017-10-23T08:53:36.454Z,99410.46
2017-10-23T08:56:03.860Z,99067.70
2017-10-23T08:58:31.316Z,99424.91
2017-10-23T09:00:58.764Z,99421.03
2017-10-23T09:03:26.236Z,99423.06
2017-10-23T09:05:53.643Z,99416.56
2017-10-23T09:08:21.074Z,99414.45
2017-10-23T09:10:48.524Z,99424.45
2017-10-23T09:13:15.982Z,99429.48
2017-10-23T09:15:43.422Z,99427.55
2017-10-23T09:18:10.827Z,99434.20
2017-10-23T09:20:38.263Z,99447.55
2017-10-23T09:23:05.689Z,99439.36
2017-10-23T09:25:33.864Z,99445.83
2017-10-23T09:28:01.260Z,99447.48
2017-10-23T09:30:28.712Z,99445.34
2017-10-23T09:32:56.155Z,99421.66
2017-10-23T09:35:23.626Z,99446.38
2017-10-23T09:37:51.031Z,99439.42
2017-10-23T09:40:18.497Z,99440.27
2017-10-23T09:42:45.899Z,99439.66
2017-10-23T09:45:13.385Z,99445.53
2017-10-23T09:47:40.836Z,99453.42
2017-10-23T09:50:08.237Z,99463.14
2017-10-23T09:52:35.676Z,99458.50
2017-10-23T09:55:03.077Z,99429.75
2017-10-23T09:57:30.512Z,99462.12
2017-10-23T09:59:57.943Z,99457.52
2017-10-23T10:02:25.365Z,99464.02
2017-10-23T10:04:53.035Z,99470.34
2017-10-23T10:07:20.490Z,99448.42
2017-10-23T10:09:47.920Z,99467.34
2017-10-23T10:12:15.489Z,99457.59
2017-10-23T10:14:42.968Z,99456.21
2017-10-23T10:17:10.400Z,99448.91
2017-10-23T10:19:37.824Z,99465.06
2017-10-23T10:22:05.216Z,99462.28
2017-10-23T10:24:32.652Z,99465.95
2017-10-23T10:27:00.088Z,99466.78
2017-10-23T10:29:27.546Z,99466.50
2017-10-23T10:31:54.980Z,99467.92
2017-10-23T10:34:22.482Z,99464.08
2017-10-23T10:36:49.944Z,99466.50
2017-10-23T10:39:17.380Z,99466.54
2017-10-23T10:41:44.812Z,99464.80
2017-10-23T10:44:12.217Z,99461.84
2017-10-23T10:46:39.647Z,99465.71
2017-10-23T10:49:07.051Z,99456.67
2017-10-23T10:51:34.520Z,99469.05
2017-10-23T10:54:02.119Z,99464.83
2017-10-23T10:56:30.009Z,99470.39
2017-10-23T10:58:57.416Z,99485.52
2017-10-23T11:01:25.076Z,99473.00
2017-10-23T11:03:52.492Z,99486.39
2017-10-23T11:06:19.939Z,99478.02
2017-10-23T11:08:47.340Z,99470.47
2017-10-23T11:11:14.735Z,99479.59
2017-10-23T11:13:42.182Z,99475.96
2017-10-23T11:16:09.566Z,99461.33
2017-10-23T11:18:37.831Z,99480.73
2017-10-23T11:21:05.287Z,99469.61
2017-10-23T11:23:32.760Z,99465.38
2017-10-23T11:26:00.391Z,99467.11
2017-10-23T11:28:27.839Z,99464.47
2017-10-23T11:30:55.271Z,99480.66
2017-10-23T11:33:22.708Z,99471.49
2017-10-23T11:35:50.151Z,99483.03
2017-10-23T11:38:17.584Z,99474.80
2017-10-23T11:40:45.012Z,99479.58
2017-10-23T11:43:12.454Z,99484.46
2017-10-23T11:45:40.061Z,99479.58
2017-10-23T11:48:07.464Z,99477.84
2017-10-23T11:50:34.879Z,99471.36
2017-10-23T11:53:02.347Z,99467.13
2017-10-23T11:55:29.768Z,99466.37
2017-10-23T11:57:57.224Z,99469.95
2017-10-23T12:00:24.608Z,99470.09
2017-10-23T12:02:52.292Z,99473.66
2017-10-23T12:05:19.704Z,99483.48
2017-10-23T12:07:47.138Z,99474.20
2017-10-23T12:10:14.536Z,99471.28
2017-10-23T12:12:41.973Z,99484.16
2017-10-23T12:15:09.392Z,99483.21
2017-10-23T12:17:36.799Z,99473.78
2017-10-23T12:20:04.264Z,99483.21
2017-10-23T12:22:31.699Z,99460.39
2017-10-23T12:24:59.141Z,99463.17
2017-10-23T12:27:26.523Z,99483.63
2017-10-23T12:29:53.963Z,99482.02
2017-10-23T12:32:21.443Z,99473.65
2017-10-23T12:34:48.888Z,99486.66
2017-10-23T12:37:16.286Z,99475.13
2017-10-23T12:39:43.815Z,99482.80
2017-10-23T12:42:11.239Z,99484.41
2017-10-23T12:44:40.060Z,99488.38
2017-10-23T12:47:07.487Z,99482.92
2017-10-23T12:49:35.005Z,99471.25
2017-10-23T12:52:02.441Z,99479.61
2017-10-23T12:54:29.857Z,99477.64
2017-10-23T12:56:57.323Z,99482.94
2017-10-23T12:59:25.542Z,99481.09
2017-10-23T13:01:52.976Z,99477.76
2017-10-23T13:04:20.422Z,99473.92
2017-10-23T13:06:47.870Z,99473.02
2017-10-23T13:09:15.352Z,99468.08
2017-10-23T13:11:42.868Z,99478.44
2017-10-23T13:14:10.297Z,99477.36
2017-10-23T13:16:37.712Z,99470.59
2017-10-23T13:19:05.311Z,99475.11
2017-10-23T13:21:32.709Z,99481.62
2017-10-23T13:24:00.120Z,99480.42
2017-10-23T13:26:28.104Z,99476.30
2017-10-23T13:28:55.517Z,99466.75
2017-10-23T13:31:22.997Z,99480.03
2017-10-23T13:33:50.412Z,99475.25
2017-10-23T13:36:17.877Z,99472.85
2017-10-23T13:38:45.284Z,99488.66
2017-10-23T13:41:12.736Z,99484.17
2017-10-23T13:43:40.149Z,99483.22
2017-10-23T13:46:07.647Z,99481.25
2017-10-23T13:48:35.100Z,99488.01
2017-10-23T13:51:03.483Z,99475.66
2017-10-23T13:53:30.963Z,99478.84
2017-10-23T13:55:58.365Z,99484.92
2017-10-23T13:58:28.013Z,99481.59
2017-10-23T14:00:55.459Z,99481.75
2017-10-23T14:03:22.928Z,99485.98
2017-10-23T14:05:50.346Z,99499.53
2017-10-23T14:08:18.503Z,99473.93
2017-10-23T14:10:45.928Z,99489.61
2017-10-23T14:13:13.387Z,99487.86
2017-10-23T14:15:40.840Z,99481.77
2017-10-23T14:18:08.285Z,99486.03
2017-10-23T14:20:35.740Z,99481.49
2017-10-23T14:23:03.153Z,99493.03
2017-10-23T14:25:30.735Z,99489.05
2017-10-23T14:27:58.226Z,99483.73
2017-10-23T14:30:25.662Z,99490.50
2017-10-23T14:32:53.071Z,99495.16
2017-10-23T14:35:20.536Z,99493.55
2017-10-23T14:37:47.989Z,99498.46
2017-10-23T14:40:15.448Z,99493.99
2017-10-23T14:42:42.874Z,99486.41
2017-10-23T14:45:10.292Z,99491.31
2017-10-23T14:47:37.727Z,99496.38
2017-10-23T14:50:05.144Z,99502.59
2017-10-23T14:52:32.587Z,99497.84
2017-10-23T14:55:00.022Z,99498.50
2017-10-23T14:57:27.521Z,99498.74
2017-10-23T14:59:54.983Z,99501.00
2017-10-23T15:02:23.076Z,99503.00
2017-10-23T15:04:50.532Z,99505.52
2017-10-23T15:07:18.073Z,99477.37
2017-10-23T15:09:45.515Z,99513.59
2017-10-23T15:12:12.973Z,99511.20
2017-10-23T15:14:40.420Z,99510.68
2017-10-23T15:17:08.704Z,99511.33
2017-10-23T15:19:36.197Z,99514.53
2017-10-23T15:22:03.676Z,99524.09
2017-10-23T15:24:31.080Z,99525.41
2017-10-23T15:26:58.556Z,99521.44
2017-10-23T15:29:26.153Z,99523.55
2017-10-23T15:31:53.659Z,99528.86
2017-10-23T15:34:21.171Z,99527.91
2017-10-23T15:36:48.641Z,99527.38
2017-10-23T15:39:16.076Z,99520.20
2017-10-23T15:41:43.580Z,99527.67
2017-10-23T15:44:11.056Z,99517.44
2017-10-23T15:46:38.543Z,99531.13
2017-10-23T15:49:05.955Z,99532.86
2017-10-23T15:51:34.784Z,99536.97
2017-10-23T15:54:02.293Z,99537.62
2017-10-23T15:56:29.762Z,99543.33
2017-10-23T15:58:57.185Z,99544.03
2017-10-23T16:01:24.627Z,99547.83
2017-10-23T16:03:52.094Z,99547.69
2017-10-23T16:06:19.527Z,99547.05
2017-10-23T16:08:47.063Z,99546.88
2017-10-23T16:11:14.501Z,99548.88
2017-10-23T16:13:41.944Z,99537.17
2017-10-23T16:16:09.412Z,99550.16
2017-10-23T16:18:37.633Z,99544.72
2017-10-23T16:21:08.703Z,99553.34
2017-10-23T16:23:36.266Z,99556.80
2017-10-23T16:26:03.732Z,99541.77
2017-10-23T16:28:31.292Z,99560.66
2017-10-23T16:30:59.051Z,99566.36
2017-10-23T16:33:26.988Z,99563.97
2017-10-23T16:35:55.398Z,99548.95
2017-10-23T16:38:22.868Z,99561.66
2017-10-23T16:40:50.332Z,99566.98
2017-10-23T16:43:17.757Z,99570.17
2017-10-23T16:45:45.200Z,99570.41
2017-10-23T16:48:12.625Z,99576.23
2017-10-23T16:50:41.049Z,99577.95
2017-10-23T16:53:08.457Z,99574.09
2017-10-23T16:55:35.921Z,99588.41
2017-10-23T16:58:03.332Z,99588.52
2017-10-23T17:00:30.788Z,99588.36
2017-10-23T17:02:58.236Z,99594.75
2017-10-23T17:05:25.705Z,99596.26
2017-10-23T17:07:53.142Z,99595.83
2017-10-23T17:10:20.555Z,99598.77
2017-10-23T17:12:48.078Z,99600.09
2017-10-23T17:15:16.567Z,99598.64
2017-10-23T17:17:44.091Z,99600.34
2017-10-23T17:20:12.483Z,99608.45
2017-10-23T17:22:39.927Z,99591.03
2017-10-23T17:25:07.357Z,99608.07
2017-10-23T17:27:34.804Z,99614.02
2017-10-23T17:30:02.237Z,99612.54
2017-10-23T17:32:29.660Z,99620.37
2017-10-23T17:34:58.049Z,99618.66
2017-10-23T17:37:27.036Z,99626.18
2017-10-23T17:39:54.513Z,99625.64
2017-10-23T17:42:21.995Z,99630.70
2017-10-23T17:44:49.809Z,99630.05
2017-10-23T17:47:17.254Z,99619.80
2017-10-23T17:49:44.719Z,99635.64
2017-10-23T17:52:12.173Z,99641.63
2017-10-23T17:54:39.766Z,99635.28
2017-10-23T17:57:07.264Z,99637.22
2017-10-23T17:59:34.770Z,99640.30
2017-10-23T18:02:02.200Z,99595.38
2017-10-23T18:04:29.634Z,99642.66
2017-10-23T18:06:57.076Z,99646.00
2017-10-23T18:09:24.485Z,99643.78
2017-10-23T18:11:52.006Z,99646.70
2017-10-23T18:14:19.459Z,99649.34
2017-10-23T18:16:48.125Z,99653.84
2017-10-23T18:19:15.622Z,99638.02
2017-10-23T18:21:43.045Z,99660.38
2017-10-23T18:24:10.550Z,99659.59
2017-10-23T18:26:39.794Z,99663.05
2017-10-23T18:29:07.468Z,99659.70
2017-10-23T18:31:34.880Z,99660.77
2017-10-23T18:34:02.454Z,99662.89
2017-10-23T18:36:30.922Z,99664.70
2017-10-23T18:38:58.389Z,99662.17
2017-10-23T18:41:25.826Z,99652.75
2017-10-23T18:43:53.260Z,99665.77
2017-10-23T18:46:20.738Z,99663.52
2017-10-23T18:48:48.155Z,99655.41
2017-10-23T18:51:16.797Z,99667.48
2017-10-23T18:53:44.306Z,99668.02
2017-10-23T18:56:13.592Z,99667.39
2017-10-23T18:58:42.804Z,99671.78
2017-10-23T19:01:10.425Z,99677.25
2017-10-23T19:03:38.778Z,99677.38
2017-10-23T19:06:06.175Z,99676.22
2017-10-23T19:08:33.607Z,99672.22
2017-10-23T19:11:01.023Z,99672.09
2017-10-23T19:13:28.969Z,99668.62
2017-10-23T19:15:56.383Z,99674.49
2017-10-23T19:18:23.865Z,99673.02
2017-10-23T19:20:51.502Z,99671.67
2017-10-23T19:23:18.934Z,99676.68
2017-10-23T19:25:46.372Z,99680.51
2017-10-23T19:28:13.856Z,99685.41
2017-10-23T19:30:41.288Z,99678.01
2017-10-23T19:33:08.767Z,99675.67
2017-10-23T19:35:36.201Z,99677.39
2017-10-23T19:38:03.664Z,99677.94
2017-10-23T19:40:31.165Z,99678.59
2017-10-23T19:42:58.578Z,99683.86
2017-10-23T19:45:26.023Z,99683.22
2017-10-23T19:47:53.506Z,99685.99
2017-10-23T19:50:24.851Z,99687.19
2017-10-23T19:52:54.489Z,99690.43
2017-10-23T19:55:21.937Z,99685.52
2017-10-23T19:57:49.365Z,99686.30
2017-10-23T20:00:17.540Z,99682.31
2017-10-23T20:02:44.957Z,99684.56
2017-10-23T20:05:12.416Z,99684.20
2017-10-23T20:07:39.901Z,99688.04
2017-10-23T20:10:07.297Z,99690.03
2017-10-23T20:12:34.789Z,99690.58
2017-10-23T20:15:02.185Z,99699.89
2017-10-23T20:17:29.628Z,99691.73
2017-10-23T20:19:57.036Z,99696.38
2017-10-23T20:22:24.501Z,99681.37
2017-10-23T20:24:51.901Z,99693.61
2017-10-23T20:27:19.361Z,99695.58
2017-10-23T20:29:46.766Z,99700.50
2017-10-23T20:32:14.231Z,99707.56
2017-10-23T20:34:41.657Z,99707.45
2017-10-23T20:37:09.088Z,99716.73
2017-10-23T20:39:36.555Z,99719.78
2017-10-23T20:42:03.972Z,99720.56
2017-10-23T20:44:31.453Z,99726.59
2017-10-23T20:46:58.852Z,99731.06
2017-10-23T20:49:26.307Z,99725.38
2017-10-23T20:51:53.714Z,99724.28
2017-10-23T20:54:21.141Z,99721.93
2017-10-23T20:56:48.532Z,99723.40
2017-10-23T20:59:15.996Z,99719.55
2017-10-23T21:01:43.419Z,99714.81
2017-10-23T21:04:10.864Z,99719.23
2017-10-23T21:06:38.259Z,99731.67
2017-10-23T21:09:05.697Z,99724.03
2017-10-23T21:11:33.133Z,99727.79
2017-10-23T21:14:00.545Z,99723.22
2017-10-23T21:16:27.978Z,99727.81
2017-10-23T21:18:55.476Z,99726.05
2017-10-23T21:21:22.896Z,99729.84
2017-10-23T21:23:50.400Z,99729.69
2017-10-23T21:26:17.825Z,99729.30
2017-10-23T21:28:45.498Z,99736.66
2017-10-23T21:31:12.909Z,99734.94
2017-10-23T21:33:40.361Z,99733.19
2017-10-23T21:36:07.740Z,99735.83
2017-10-23T21:38:35.206Z,99732.83
2017-10-23T21:41:02.637Z,99734.42
2017-10-23T21:43:30.054Z,99735.11
2017-10-23T21:45:57.461Z,99740.02
2017-10-23T21:48:24.896Z,99734.95
2017-10-23T21:50:52.294Z,99736.84
2017-10-23T21:53:19.724Z,99737.29
2017-10-23T21:55:47.190Z,99738.00
2017-10-23T21:58:14.590Z,99737.95
2017-10-23T22:00:42.017Z,99746.57
2017-10-23T22:03:09.463Z,99737.94
2017-10-23T22:05:36.899Z,99732.11
2017-10-23T22:08:04.347Z,99739.28
2017-10-23T22:10:31.809Z,99739.91
2017-10-23T22:12:59.230Z,99727.44
2017-10-23T22:15:26.692Z,99732.88
2017-10-23T22:17:54.152Z,99735.55
2017-10-23T22:20:21.579Z,99735.91
2017-10-23T22:22:49.020Z,99739.24
2017-10-23T22:25:16.466Z,99739.75
2017-10-23T22:27:43.926Z,99744.25
2017-10-23T22:30:11.372Z,99747.05
2017-10-23T22:32:38.834Z,99744.95
2017-10-23T22:35:06.291Z,99739.69
2017-10-23T22:37:33.779Z,99739.56
2017-10-23T22:40:01.220Z,99739.46
2017-10-23T22:42:28.639Z,99733.75
2017-10-23T22:44:56.098Z,99729.46
2017-10-23T22:47:23.530Z,99734.23
2017-10-23T22:49:50.932Z,99732.08
2017-10-23T22:52:18.385Z,99730.61
2017-10-23T22:54:45.787Z,99738.97
2017-10-23T22:57:13.208Z,99734.75
2017-10-23T22:59:40.636Z,99741.02
2017-10-23T23:02:08.093Z,99737.16
2017-10-23T23:04:35.506Z,99741.37
2017-10-23T23:07:02.922Z,99744.83
2017-10-23T23:09:30.403Z,99741.26
2017-10-23T23:11:57.817Z,99741.02
2017-10-23T23:14:25.288Z,99742.75
2017-10-23T23:16:52.687Z,99745.80
2017-10-23T23:19:20.135Z,99739.42
2017-10-23T23:21:47.544Z,99742.61
2017-10-23T23:24:15.020Z,99732.91
2017-10-23T23:26:42.414Z,99734.39
2017-10-23T23:29:09.843Z,99742.23
2017-10-23T23:31:37.259Z,99743.84
2017-10-23T23:34:04.760Z,99743.98
2017-10-23T23:36:32.180Z,99742.67
2017-10-23T23:38:59.630Z,99741.80
2017-10-23T23:41:27.097Z,99736.81
2017-10-23T23:43:54.500Z,99737.98
2017-10-23T23:46:21.930Z,99738.86
2017-10-23T23:48:49.345Z,99737.70
2017-10-23T23:51:16.829Z,99737.30
2017-10-23T23:53:44.232Z,99735.71
2017-10-23T23:56:11.692Z,99736.79
2017-10-23T23:58:39.107Z,99742.58
